sensor_id;sensor_type;location;lat;lon;timestamp;pressure;altitude;pressure_sealevel;temperature;humidity
55271;BME280;41132;47.162;9.470;2023-04-26T00:01:24;96527.78;;;7.71;100.00
55271;BME280;41132;47.162;9.470;2023-04-26T00:03:51;96529.97;;;7.76;100.00
55271;BME280;41132;47.162;9.470;2023-04-26T00:06:17;96522.84;;;7.78;100.00
55271;BME280;41132;47.162;9.470;2023-04-26T00:08:42;96522.03;;;7.77;100.00
55271;BME280;41132;47.162;9.470;2023-04-26T00:11:08;96537.13;;;7.83;100.00
55271;BME280;41132;47.162;9.470;2023-04-26T00:13:33;96541.25;;;7.76;100.00
55271;BME280;41132;47.162;9.470;2023-04-26T00:15:59;96527.09;;;7.69;100.00
55271;BME280;41132;47.162;9.470;2023-04-26T00:18:24;96528.47;;;7.83;100.00
55271;BME280;41132;47.162;9.470;2023-04-26T00:20:49;96525.72;;;7.55;100.00
55271;BME280;41132;47.162;9.470;2023-04-26T00:23:15;96518.84;;;7.64;100.00
55271;BME280;41132;47.162;9.470;2023-04-26T00:25:41;96531.78;;;7.65;100.00
55271;BME280;41132;47.162;9.470;2023-04-26T00:28:06;96539.22;;;7.70;100.00
55271;BME280;41132;47.162;9.470;2023-04-26T00:30:34;96537.13;;;7.64;100.00
55271;BME280;41132;47.162;9.470;2023-04-26T00:33:01;96541.66;;;7.71;100.00
55271;BME280;41132;47.162;9.470;2023-04-26T00:35:27;96536.84;;;7.67;100.00
55271;BME280;41132;47.162;9.470;2023-04-26T00:37:52;96538.50;;;7.68;100.00
55271;BME280;41132;47.162;9.470;2023-04-26T00:40:18;96528.47;;;7.63;100.00
55271;BME280;41132;47.162;9.470;2023-04-26T00:42:44;96532.88;;;7.82;100.00
55271;BME280;41132;47.162;9.470;2023-04-26T00:45:10;96532.19;;;7.70;100.00
55271;BME280;41132;47.162;9.470;2023-04-26T00:47:35;96539.75;;;7.73;100.00
55271;BME280;41132;47.162;9.470;2023-04-26T00:50:01;96542.91;;;7.77;100.00
55271;BME280;41132;47.162;9.470;2023-04-26T00:52:27;96526.13;;;7.60;100.00
55271;BME280;41132;47.162;9.470;2023-04-26T00:54:53;96539.34;;;7.68;100.00
55271;BME280;41132;47.162;9.470;2023-04-26T00:57:20;96543.34;;;7.72;100.00
55271;BME280;41132;47.162;9.470;2023-04-26T00:59:47;96544.16;;;7.73;100.00
55271;BME280;41132;47.162;9.470;2023-04-26T01:02:13;96541.66;;;7.71;100.00
55271;BME280;41132;47.162;9.470;2023-04-26T01:04:38;96547.03;;;7.70;100.00
55271;BME280;41132;47.162;9.470;2023-04-26T01:07:06;96533.56;;;7.74;100.00
55271;BME280;41132;47.162;9.470;2023-04-26T01:09:31;96536.16;;;7.65;100.00
55271;BME280;41132;47.162;9.470;2023-04-26T01:11:57;96512.94;;;7.52;100.00
55271;BME280;41132;47.162;9.470;2023-04-26T01:14:23;96514.84;;;7.50;100.00
55271;BME280;41132;47.162;9.470;2023-04-26T01:16:49;96540.28;;;7.67;100.00
55271;BME280;41132;47.162;9.470;2023-04-26T01:19:16;96546.19;;;7.69;100.00
55271;BME280;41132;47.162;9.470;2023-04-26T01:21:42;96547.28;;;7.67;100.00
55271;BME280;41132;47.162;9.470;2023-04-26T01:24:09;96546.34;;;7.78;100.00
55271;BME280;41132;47.162;9.470;2023-04-26T01:26:35;96526.69;;;7.54;100.00
55271;BME280;41132;47.162;9.470;2023-04-26T01:29:12;96516.38;;;7.52;100.00
55271;BME280;41132;47.162;9.470;2023-04-26T01:31:37;96535.06;;;7.58;100.00
55271;BME280;41132;47.162;9.470;2023-04-26T01:34:02;96538.34;;;7.60;100.00
55271;BME280;41132;47.162;9.470;2023-04-26T01:36:28;96535.34;;;7.64;100.00
55271;BME280;41132;47.162;9.470;2023-04-26T01:38:53;96535.75;;;7.60;100.00
55271;BME280;41132;47.162;9.470;2023-04-26T01:41:18;96540.97;;;7.60;100.00
55271;BME280;41132;47.162;9.470;2023-04-26T01:43:44;96540.16;;;7.59;100.00
55271;BME280;41132;47.162;9.470;2023-04-26T01:46:09;96548.69;;;7.61;100.00
55271;BME280;41132;47.162;9.470;2023-04-26T01:48:35;96530.13;;;7.45;100.00
55271;BME280;41132;47.162;9.470;2023-04-26T01:51:00;96533.97;;;7.60;100.00
55271;BME280;41132;47.162;9.470;2023-04-26T01:53:25;96524.19;;;7.62;100.00
55271;BME280;41132;47.162;9.470;2023-04-26T01:55:51;96509.59;;;7.40;100.00
55271;BME280;41132;47.162;9.470;2023-04-26T01:58:16;96536.97;;;7.46;100.00
55271;BME280;41132;47.162;9.470;2023-04-26T02:00:42;96538.06;;;7.53;100.00
55271;BME280;41132;47.162;9.470;2023-04-26T02:03:07;96545.91;;;7.53;100.00
55271;BME280;41132;47.162;9.470;2023-04-26T02:05:32;96527.09;;;7.49;100.00
55271;BME280;41132;47.162;9.470;2023-04-26T02:07:58;96531.06;;;7.44;100.00
55271;BME280;41132;47.162;9.470;2023-04-26T02:10:23;96531.75;;;7.56;100.00
55271;BME280;41132;47.162;9.470;2023-04-26T02:12:48;96540.00;;;7.51;100.00
55271;BME280;41132;47.162;9.470;2023-04-26T02:15:14;96521.72;;;7.41;100.00
55271;BME280;41132;47.162;9.470;2023-04-26T02:17:39;96534.22;;;7.47;100.00
55271;BME280;41132;47.162;9.470;2023-04-26T02:20:05;96523.22;;;7.53;100.00
55271;BME280;41132;47.162;9.470;2023-04-26T02:22:34;96522.56;;;7.61;100.00
55271;BME280;41132;47.162;9.470;2023-04-26T02:25:00;96509.63;;;7.50;100.00
55271;BME280;41132;47.162;9.470;2023-04-26T02:27:25;96510.56;;;7.49;100.00
55271;BME280;41132;47.162;9.470;2023-04-26T02:29:51;96505.63;;;7.46;100.00
55271;BME280;41132;47.162;9.470;2023-04-26T02:32:17;96509.06;;;7.46;100.00
55271;BME280;41132;47.162;9.470;2023-04-26T02:34:43;96506.31;;;7.38;100.00
55271;BME280;41132;47.162;9.470;2023-04-26T02:37:08;96508.81;;;7.49;100.00
55271;BME280;41132;47.162;9.470;2023-04-26T02:39:34;96507.84;;;7.50;100.00
55271;BME280;41132;47.162;9.470;2023-04-26T02:42:00;96506.44;;;7.46;100.00
55271;BME280;41132;47.162;9.470;2023-04-26T02:44:28;96505.06;;;7.42;100.00
55271;BME280;41132;47.162;9.470;2023-04-26T02:46:54;96496.13;;;7.25;100.00
55271;BME280;41132;47.162;9.470;2023-04-26T02:49:20;96496.53;;;7.30;100.00
55271;BME280;41132;47.162;9.470;2023-04-26T02:51:45;96505.63;;;7.36;100.00
55271;BME280;41132;47.162;9.470;2023-04-26T02:54:11;96502.06;;;7.47;100.00
55271;BME280;41132;47.162;9.470;2023-04-26T02:56:36;96504.13;;;7.43;100.00
55271;BME280;41132;47.162;9.470;2023-04-26T02:59:01;96501.91;;;7.39;100.00
55271;BME280;41132;47.162;9.470;2023-04-26T03:01:27;96505.75;;;7.35;100.00
55271;BME280;41132;47.162;9.470;2023-04-26T03:03:53;96483.19;;;7.24;100.00
55271;BME280;41132;47.162;9.470;2023-04-26T03:06:18;96501.34;;;7.35;100.00
55271;BME280;41132;47.162;9.470;2023-04-26T03:08:44;96493.00;;;7.31;100.00
55271;BME280;41132;47.162;9.470;2023-04-26T03:11:09;96496.53;;;7.30;100.00
55271;BME280;41132;47.162;9.470;2023-04-26T03:13:35;96510.69;;;7.38;100.00
55271;BME280;41132;47.162;9.470;2023-04-26T03:16:01;96510.97;;;7.35;100.00
55271;BME280;41132;47.162;9.470;2023-04-26T03:18:26;96478.50;;;7.08;100.00
55271;BME280;41132;47.162;9.470;2023-04-26T03:20:51;96501.63;;;7.32;100.00
55271;BME280;41132;47.162;9.470;2023-04-26T03:23:17;96501.09;;;7.38;100.00
55271;BME280;41132;47.162;9.470;2023-04-26T03:25:42;96505.22;;;7.41;100.00
55271;BME280;41132;47.162;9.470;2023-04-26T03:28:08;96500.53;;;7.35;100.00
55271;BME280;41132;47.162;9.470;2023-04-26T03:30:33;96505.75;;;7.44;100.00
55271;BME280;41132;47.162;9.470;2023-04-26T03:32:58;96510.28;;;7.42;100.00
55271;BME280;41132;47.162;9.470;2023-04-26T03:35:24;96494.09;;;7.48;100.00
55271;BME280;41132;47.162;9.470;2023-04-26T03:37:50;96487.34;;;7.46;100.00
55271;BME280;41132;47.162;9.470;2023-04-26T03:40:15;96518.00;;;7.44;100.00
55271;BME280;41132;47.162;9.470;2023-04-26T03:42:41;96511.38;;;7.40;100.00
55271;BME280;41132;47.162;9.470;2023-04-26T03:45:07;96503.44;;;7.51;100.00
55271;BME280;41132;47.162;9.470;2023-04-26T03:47:32;96507.44;;;7.45;100.00
55271;BME280;41132;47.162;9.470;2023-04-26T03:49:58;96469.16;;;7.15;100.00
55271;BME280;41132;47.162;9.470;2023-04-26T03:52:23;96504.25;;;7.32;100.00
55271;BME280;41132;47.162;9.470;2023-04-26T03:54:49;96506.31;;;7.38;100.00
55271;BME280;41132;47.162;9.470;2023-04-26T03:57:14;96508.09;;;7.28;100.00
55271;BME280;41132;47.162;9.470;2023-04-26T03:59:40;96498.22;;;7.31;100.00
55271;BME280;41132;47.162;9.470;2023-04-26T04:02:06;96514.69;;;7.42;100.00
55271;BME280;41132;47.162;9.470;2023-04-26T04:04:31;96516.50;;;7.41;100.00
55271;BME280;41132;47.162;9.470;2023-04-26T04:06:57;96488.00;;;7.19;100.00
55271;BME280;41132;47.162;9.470;2023-04-26T04:09:23;96494.03;;;7.19;100.00
55271;BME280;41132;47.162;9.470;2023-04-26T04:11:48;96515.50;;;7.32;100.00
55271;BME280;41132;47.162;9.470;2023-04-26T04:14:13;96495.44;;;7.23;100.00
55271;BME280;41132;47.162;9.470;2023-04-26T04:16:39;96508.66;;;7.31;100.00
55271;BME280;41132;47.162;9.470;2023-04-26T04:19:04;96491.44;;;7.19;100.00
55271;BME280;41132;47.162;9.470;2023-04-26T04:21:30;96515.09;;;7.37;100.00
55271;BME280;41132;47.162;9.470;2023-04-26T04:23:56;96505.75;;;7.35;100.00
55271;BME280;41132;47.162;9.470;2023-04-26T04:26:21;96490.09;;;7.25;100.00
55271;BME280;41132;47.162;9.470;2023-04-26T04:28:47;96511.09;;;7.23;100.00
55271;BME280;41132;47.162;9.470;2023-04-26T04:31:13;96495.03;;;7.18;100.00
55271;BME280;41132;47.162;9.470;2023-04-26T04:33:38;96506.03;;;7.31;100.00
55271;BME280;41132;47.162;9.470;2023-04-26T04:36:03;96497.41;;;7.41;100.00
55271;BME280;41132;47.162;9.470;2023-04-26T04:38:31;96504.25;;;7.42;100.00
55271;BME280;41132;47.162;9.470;2023-04-26T04:40:56;96510.16;;;7.44;100.00
55271;BME280;41132;47.162;9.470;2023-04-26T04:43:22;96500.53;;;7.44;100.00
55271;BME280;41132;47.162;9.470;2023-04-26T04:45:48;96497.94;;;7.35;100.00
55271;BME280;41132;47.162;9.470;2023-04-26T04:48:14;96493.91;;;7.11;100.00
55271;BME280;41132;47.162;9.470;2023-04-26T04:50:39;96510.13;;;7.24;100.00
55271;BME280;41132;47.162;9.470;2023-04-26T04:53:06;96512.47;;;7.27;100.00
55271;BME280;41132;47.162;9.470;2023-04-26T04:55:33;96513.59;;;7.35;100.00
55271;BME280;41132;47.162;9.470;2023-04-26T04:57:58;96502.28;;;7.24;100.00
55271;BME280;41132;47.162;9.470;2023-04-26T05:00:24;96497.34;;;7.11;100.00
55271;BME280;41132;47.162;9.470;2023-04-26T05:02:49;96516.31;;;7.23;100.00
55271;BME280;41132;47.162;9.470;2023-04-26T05:05:14;96507.66;;;7.23;100.00
55271;BME280;41132;47.162;9.470;2023-04-26T05:07:41;96525.00;;;7.34;100.00
55271;BME280;41132;47.162;9.470;2023-04-26T05:10:06;96522.00;;;7.38;100.00
55271;BME280;41132;47.162;9.470;2023-04-26T05:12:32;96516.19;;;7.35;100.00
55271;BME280;41132;47.162;9.470;2023-04-26T05:14:59;96512.38;;;7.39;100.00
55271;BME280;41132;47.162;9.470;2023-04-26T05:17:24;96505.19;;;7.31;100.00
55271;BME280;41132;47.162;9.470;2023-04-26T05:19:50;96512.50;;;7.37;100.00
55271;BME280;41132;47.162;9.470;2023-04-26T05:22:15;96501.22;;;7.46;100.00
55271;BME280;41132;47.162;9.470;2023-04-26T05:24:45;96511.84;;;7.55;100.00
55271;BME280;41132;47.162;9.470;2023-04-26T05:27:11;96499.88;;;7.52;100.00
55271;BME280;41132;47.162;9.470;2023-04-26T05:29:36;96512.66;;;7.55;100.00
55271;BME280;41132;47.162;9.470;2023-04-26T05:32:01;96526.41;;;7.67;100.00
55271;BME280;41132;47.162;9.470;2023-04-26T05:34:27;96519.50;;;7.56;100.00
55271;BME280;41132;47.162;9.470;2023-04-26T05:36:53;96509.63;;;7.50;100.00
55271;BME280;41132;47.162;9.470;2023-04-26T05:39:18;96520.06;;;7.50;100.00
55271;BME280;41132;47.162;9.470;2023-04-26T05:41:45;96518.97;;;7.52;100.00
55271;BME280;41132;47.162;9.470;2023-04-26T05:44:12;96531.09;;;7.63;100.00
55271;BME280;41132;47.162;9.470;2023-04-26T05:46:37;96516.66;;;7.69;100.00
55271;BME280;41132;47.162;9.470;2023-04-26T05:49:03;96529.00;;;7.67;100.00
55271;BME280;41132;47.162;9.470;2023-04-26T05:51:28;96523.94;;;7.85;100.00
55271;BME280;41132;47.162;9.470;2023-04-26T05:53:53;96530.69;;;7.97;100.00
55271;BME280;41132;47.162;9.470;2023-04-26T05:56:19;96506.63;;;7.84;100.00
55271;BME280;41132;47.162;9.470;2023-04-26T05:58:45;96514.56;;;7.92;100.00
55271;BME280;41132;47.162;9.470;2023-04-26T06:01:10;96531.34;;;8.09;100.00
55271;BME280;41132;47.162;9.470;2023-04-26T06:03:36;96507.16;;;7.97;100.00
55271;BME280;41132;47.162;9.470;2023-04-26T06:06:02;96530.25;;;8.11;100.00
55271;BME280;41132;47.162;9.470;2023-04-26T06:08:27;96535.88;;;8.16;100.00
55271;BME280;41132;47.162;9.470;2023-04-26T06:10:53;96534.09;;;8.07;100.00
55271;BME280;41132;47.162;9.470;2023-04-26T06:13:18;96530.94;;;8.13;100.00
55271;BME280;41132;47.162;9.470;2023-04-26T06:15:44;96530.22;;;8.21;100.00
55271;BME280;41132;47.162;9.470;2023-04-26T06:18:09;96522.66;;;8.28;100.00
55271;BME280;41132;47.162;9.470;2023-04-26T06:20:35;96520.84;;;8.48;100.00
55271;BME280;41132;47.162;9.470;2023-04-26T06:23:00;96511.59;;;8.53;100.00
55271;BME280;41132;47.162;9.470;2023-04-26T06:25:26;96509.88;;;8.72;100.00
55271;BME280;41132;47.162;9.470;2023-04-26T06:27:51;96513.16;;;8.84;100.00
55271;BME280;41132;47.162;9.470;2023-04-26T06:30:16;96528.97;;;9.65;100.00
55271;BME280;41132;47.162;9.470;2023-04-26T06:32:42;96520.66;;;10.50;100.00
55271;BME280;41132;47.162;9.470;2023-04-26T06:35:08;96518.72;;;11.37;94.23
55271;BME280;41132;47.162;9.470;2023-04-26T06:37:33;96524.47;;;12.16;89.52
55271;BME280;41132;47.162;9.470;2023-04-26T06:39:59;96501.00;;;12.78;86.33
55271;BME280;41132;47.162;9.470;2023-04-26T06:42:25;96525.91;;;13.54;81.18
55271;BME280;41132;47.162;9.470;2023-04-26T06:44:51;96519.28;;;14.28;76.29
55271;BME280;41132;47.162;9.470;2023-04-26T06:47:16;96514.69;;;14.45;72.22
55271;BME280;41132;47.162;9.470;2023-04-26T06:49:42;96511.63;;;13.95;74.95
55271;BME280;41132;47.162;9.470;2023-04-26T06:52:07;96502.47;;;14.29;67.28
55271;BME280;41132;47.162;9.470;2023-04-26T06:54:32;96517.03;;;14.77;63.47
55271;BME280;41132;47.162;9.470;2023-04-26T06:56:58;96493.44;;;14.61;67.99
55271;BME280;41132;47.162;9.470;2023-04-26T06:59:23;96506.72;;;15.12;65.13
55271;BME280;41132;47.162;9.470;2023-04-26T07:01:49;96519.16;;;15.48;71.77
55271;BME280;41132;47.162;9.470;2023-04-26T07:04:14;96523.22;;;15.65;60.86
55271;BME280;41132;47.162;9.470;2023-04-26T07:06:41;96509.03;;;16.31;58.82
55271;BME280;41132;47.162;9.470;2023-04-26T07:09:06;96496.59;;;16.32;57.93
55271;BME280;41132;47.162;9.470;2023-04-26T07:11:32;96511.44;;;16.54;55.09
55271;BME280;41132;47.162;9.470;2023-04-26T07:13:58;96523.69;;;16.83;53.70
55271;BME280;41132;47.162;9.470;2023-04-26T07:16:23;96496.16;;;16.56;55.12
55271;BME280;41132;47.162;9.470;2023-04-26T07:18:49;96504.84;;;16.43;53.72
55271;BME280;41132;47.162;9.470;2023-04-26T07:21:14;96484.34;;;16.87;53.71
55271;BME280;41132;47.162;9.470;2023-04-26T07:23:40;96483.06;;;17.11;55.22
55271;BME280;41132;47.162;9.470;2023-04-26T07:26:05;96500.19;;;17.08;51.15
55271;BME280;41132;47.162;9.470;2023-04-26T07:28:32;96483.53;;;17.83;56.00
55271;BME280;41132;47.162;9.470;2023-04-26T07:30:58;96498.34;;;17.64;52.06
55271;BME280;41132;47.162;9.470;2023-04-26T07:33:24;96500.31;;;17.35;53.82
55271;BME280;41132;47.162;9.470;2023-04-26T07:35:57;96492.34;;;17.97;49.84
55271;BME280;41132;47.162;9.470;2023-04-26T07:38:22;96493.56;;;18.54;48.49
55271;BME280;41132;47.162;9.470;2023-04-26T07:40:48;96476.41;;;17.90;52.12
55271;BME280;41132;47.162;9.470;2023-04-26T07:43:14;96474.72;;;17.82;54.16
55271;BME280;41132;47.162;9.470;2023-04-26T07:45:40;96494.88;;;17.08;53.43
55271;BME280;41132;47.162;9.470;2023-04-26T07:48:06;96485.19;;;18.10;47.56
55271;BME280;41132;47.162;9.470;2023-04-26T07:50:31;96479.88;;;17.97;51.98
55271;BME280;41132;47.162;9.470;2023-04-26T07:52:57;96482.50;;;18.70;47.13
55271;BME280;41132;47.162;9.470;2023-04-26T07:55:22;96484.03;;;19.18;44.81
55271;BME280;41132;47.162;9.470;2023-04-26T07:57:48;96473.44;;;19.05;44.80
55271;BME280;41132;47.162;9.470;2023-04-26T08:00:13;96476.53;;;20.23;47.19
55271;BME280;41132;47.162;9.470;2023-04-26T08:02:41;96477.91;;;19.63;45.02
55271;BME280;41132;47.162;9.470;2023-04-26T08:05:07;96470.94;;;20.00;45.35
55271;BME280;41132;47.162;9.470;2023-04-26T08:07:33;96470.75;;;20.52;41.59
55271;BME280;41132;47.162;9.470;2023-04-26T08:09:58;96476.34;;;19.87;43.52
55271;BME280;41132;47.162;9.470;2023-04-26T08:12:24;96446.88;;;19.43;48.44
55271;BME280;41132;47.162;9.470;2023-04-26T08:14:49;96467.50;;;19.54;49.62
55271;BME280;41132;47.162;9.470;2023-04-26T08:17:15;96443.38;;;19.04;51.62
55271;BME280;41132;47.162;9.470;2023-04-26T08:19:40;96451.00;;;19.39;49.41
55271;BME280;41132;47.162;9.470;2023-04-26T08:22:05;96463.25;;;19.47;51.06
55271;BME280;41132;47.162;9.470;2023-04-26T08:24:31;96461.38;;;19.02;53.72
55271;BME280;41132;47.162;9.470;2023-04-26T08:26:56;96470.56;;;19.96;50.29
55271;BME280;41132;47.162;9.470;2023-04-26T08:29:23;96465.25;;;19.13;51.92
55271;BME280;41132;47.162;9.470;2023-04-26T08:31:49;96457.16;;;18.68;49.05
55271;BME280;41132;47.162;9.470;2023-04-26T08:34:14;96460.97;;;19.89;48.50
55271;BME280;41132;47.162;9.470;2023-04-26T08:36:40;96457.97;;;20.10;45.82
55271;BME280;41132;47.162;9.470;2023-04-26T08:39:06;96457.47;;;19.56;49.83
55271;BME280;41132;47.162;9.470;2023-04-26T08:41:36;96453.31;;;19.74;47.04
55271;BME280;41132;47.162;9.470;2023-04-26T08:44:04;96432.16;;;18.95;47.92
55271;BME280;41132;47.162;9.470;2023-04-26T08:51:50;96436.38;;;18.18;48.47
55271;BME280;41132;47.162;9.470;2023-04-26T08:54:16;96436.78;;;18.28;49.73
55271;BME280;41132;47.162;9.470;2023-04-26T08:56:43;96435.72;;;18.63;50.93
55271;BME280;41132;47.162;9.470;2023-04-26T08:59:09;96444.91;;;19.32;48.20
55271;BME280;41132;47.162;9.470;2023-04-26T09:01:38;96431.16;;;19.73;42.91
55271;BME280;41132;47.162;9.470;2023-04-26T09:04:05;96440.31;;;19.84;47.38
55271;BME280;41132;47.162;9.470;2023-04-26T09:06:32;96438.44;;;19.53;47.64
55271;BME280;41132;47.162;9.470;2023-04-26T09:08:57;96430.50;;;20.10;48.59
55271;BME280;41132;47.162;9.470;2023-04-26T09:11:26;96413.03;;;19.89;46.26
55271;BME280;41132;47.162;9.470;2023-04-26T09:13:53;96428.88;;;19.00;45.60
55271;BME280;41132;47.162;9.470;2023-04-26T09:16:18;96436.22;;;19.50;48.59
55271;BME280;41132;47.162;9.470;2023-04-26T09:18:48;96430.41;;;19.59;46.72
55271;BME280;41132;47.162;9.470;2023-04-26T09:21:16;96436.53;;;19.67;45.79
55271;BME280;41132;47.162;9.470;2023-04-26T09:23:57;96417.63;;;19.43;46.76
55271;BME280;41132;47.162;9.470;2023-04-26T09:26:22;96426.69;;;19.74;47.87
55271;BME280;41132;47.162;9.470;2023-04-26T09:28:48;96426.75;;;19.15;46.15
55271;BME280;41132;47.162;9.470;2023-04-26T09:31:35;96421.09;;;19.82;47.79
55271;BME280;41132;47.162;9.470;2023-04-26T09:34:01;96423.00;;;19.68;48.06
55271;BME280;41132;47.162;9.470;2023-04-26T09:36:26;96425.50;;;20.20;47.13
55271;BME280;41132;47.162;9.470;2023-04-26T09:38:52;96419.53;;;20.24;46.15
55271;BME280;41132;47.162;9.470;2023-04-26T09:41:17;96430.09;;;20.13;43.27
55271;BME280;41132;47.162;9.470;2023-04-26T09:43:43;96419.59;;;20.61;44.27
55271;BME280;41132;47.162;9.470;2023-04-26T09:46:08;96414.66;;;19.96;43.03
55271;BME280;41132;47.162;9.470;2023-04-26T09:48:33;96425.75;;;20.37;46.15
55271;BME280;41132;47.162;9.470;2023-04-26T09:53:32;96409.00;;;20.30;45.09
55271;BME280;41132;47.162;9.470;2023-04-26T09:56:18;96404.97;;;20.45;41.84
55271;BME280;41132;47.162;9.470;2023-04-26T10:01:17;96417.47;;;20.01;43.24
55271;BME280;41132;47.162;9.470;2023-04-26T10:03:43;96392.47;;;19.71;43.51
55271;BME280;41132;47.162;9.470;2023-04-26T10:06:10;96414.19;;;19.74;46.40
55271;BME280;41132;47.162;9.470;2023-04-26T10:08:36;96407.34;;;19.53;46.31
55271;BME280;41132;47.162;9.470;2023-04-26T10:11:05;96407.50;;;18.48;49.29
55271;BME280;41132;47.162;9.470;2023-04-26T10:13:38;96402.19;;;18.42;47.31
55271;BME280;41132;47.162;9.470;2023-04-26T10:16:04;96392.16;;;18.57;45.53
55271;BME280;41132;47.162;9.470;2023-04-26T10:18:31;96404.47;;;18.31;46.60
55271;BME280;41132;47.162;9.470;2023-04-26T10:21:02;96394.00;;;18.56;47.28
55271;BME280;41132;47.162;9.470;2023-04-26T10:23:30;96378.94;;;19.02;46.88
55271;BME280;41132;47.162;9.470;2023-04-26T10:25:57;96398.75;;;17.68;45.38
55271;BME280;41132;47.162;9.470;2023-04-26T10:31:13;96382.13;;;17.13;51.03
55271;BME280;41132;47.162;9.470;2023-04-26T10:33:38;96394.28;;;17.95;51.17
55271;BME280;41132;47.162;9.470;2023-04-26T10:36:10;96381.81;;;18.02;47.99
55271;BME280;41132;47.162;9.470;2023-04-26T10:38:38;96383.63;;;18.35;44.30
55271;BME280;41132;47.162;9.470;2023-04-26T10:41:26;96387.56;;;17.86;46.72
55271;BME280;41132;47.162;9.470;2023-04-26T10:43:53;96377.69;;;17.40;47.19
55271;BME280;41132;47.162;9.470;2023-04-26T10:46:38;96380.81;;;17.90;47.85
55271;BME280;41132;47.162;9.470;2023-04-26T10:49:18;96378.72;;;17.65;46.89
55271;BME280;41132;47.162;9.470;2023-04-26T10:52:09;96376.56;;;16.94;47.27
55271;BME280;41132;47.162;9.470;2023-04-26T10:54:50;96376.22;;;17.17;49.15
55271;BME280;41132;47.162;9.470;2023-04-26T10:57:16;96369.03;;;17.11;46.24
55271;BME280;41132;47.162;9.470;2023-04-26T11:03:03;96373.50;;;16.56;39.56
55271;BME280;41132;47.162;9.470;2023-04-26T11:05:51;96367.31;;;16.83;42.87
55271;BME280;41132;47.162;9.470;2023-04-26T11:08:20;96366.28;;;16.08;45.64
55271;BME280;41132;47.162;9.470;2023-04-26T11:10:51;96367.88;;;16.02;43.63
55271;BME280;41132;47.162;9.470;2023-04-26T11:13:17;96366.09;;;15.81;41.04
55271;BME280;41132;47.162;9.470;2023-04-26T11:15:44;96362.38;;;15.54;40.72
55271;BME280;41132;47.162;9.470;2023-04-26T11:18:10;96359.34;;;15.57;45.48
55271;BME280;41132;47.162;9.470;2023-04-26T11:20:35;96352.84;;;15.60;45.95
55271;BME280;41132;47.162;9.470;2023-04-26T11:23:01;96360.72;;;15.53;46.17
55271;BME280;41132;47.162;9.470;2023-04-26T11:25:27;96344.84;;;16.03;48.13
55271;BME280;41132;47.162;9.470;2023-04-26T11:28:00;96334.66;;;16.00;44.62
55271;BME280;41132;47.162;9.470;2023-04-26T11:30:30;96343.41;;;16.00;42.97
55271;BME280;41132;47.162;9.470;2023-04-26T11:33:00;96335.09;;;16.03;46.70
55271;BME280;41132;47.162;9.470;2023-04-26T11:35:26;96338.28;;;16.27;49.73
55271;BME280;41132;47.162;9.470;2023-04-26T11:37:53;96333.22;;;15.97;46.81
55271;BME280;41132;47.162;9.470;2023-04-26T11:40:21;96339.50;;;15.96;47.64
55271;BME280;41132;47.162;9.470;2023-04-26T11:42:47;96341.47;;;16.16;49.60
55271;BME280;41132;47.162;9.470;2023-04-26T11:45:15;96341.97;;;16.26;50.48
55271;BME280;41132;47.162;9.470;2023-04-26T11:47:43;96338.72;;;16.37;49.25
55271;BME280;41132;47.162;9.470;2023-04-26T11:50:08;96328.81;;;16.11;48.23
55271;BME280;41132;47.162;9.470;2023-04-26T11:52:34;96338.03;;;16.15;48.48
55271;BME280;41132;47.162;9.470;2023-04-26T11:55:04;96331.66;;;16.10;48.20
55271;BME280;41132;47.162;9.470;2023-04-26T11:57:34;96325.09;;;15.99;45.52
55271;BME280;41132;47.162;9.470;2023-04-26T12:00:13;96329.13;;;15.95;45.72
55271;BME280;41132;47.162;9.470;2023-04-26T12:02:46;96335.34;;;16.08;45.72
55271;BME280;41132;47.162;9.470;2023-04-26T12:05:25;96334.06;;;16.04;44.65
55271;BME280;41132;47.162;9.470;2023-04-26T12:07:52;96327.75;;;16.05;45.23
55271;BME280;41132;47.162;9.470;2023-04-26T12:10:19;96323.44;;;15.98;44.78
55271;BME280;41132;47.162;9.470;2023-04-26T12:12:48;96303.66;;;15.44;45.97
55271;BME280;41132;47.162;9.470;2023-04-26T12:15:15;96326.22;;;15.90;47.24
55271;BME280;41132;47.162;9.470;2023-04-26T12:17:50;96331.63;;;16.03;51.67
55271;BME280;41132;47.162;9.470;2023-04-26T12:20:16;96312.75;;;15.56;52.76
55271;BME280;41132;47.162;9.470;2023-04-26T12:22:56;96331.53;;;15.40;53.33
55271;BME280;41132;47.162;9.470;2023-04-26T12:25:21;96322.19;;;15.44;53.89
55271;BME280;41132;47.162;9.470;2023-04-26T12:27:46;96327.41;;;15.37;53.51
55271;BME280;41132;47.162;9.470;2023-04-26T12:30:12;96325.22;;;14.98;51.95
55271;BME280;41132;47.162;9.470;2023-04-26T12:32:37;96330.84;;;15.31;54.67
55271;BME280;41132;47.162;9.470;2023-04-26T12:35:03;96310.31;;;15.33;53.41
55271;BME280;41132;47.162;9.470;2023-04-26T12:37:28;96330.91;;;15.66;52.21
55271;BME280;41132;47.162;9.470;2023-04-26T12:39:53;96322.41;;;15.92;53.09
55271;BME280;41132;47.162;9.470;2023-04-26T12:42:19;96318.31;;;15.68;49.21
55271;BME280;41132;47.162;9.470;2023-04-26T12:44:44;96317.97;;;15.71;51.09
55271;BME280;41132;47.162;9.470;2023-04-26T12:47:10;96338.03;;;15.65;50.81
55271;BME280;41132;47.162;9.470;2023-04-26T12:49:35;96324.06;;;15.50;49.86
55271;BME280;41132;47.162;9.470;2023-04-26T12:52:01;96328.03;;;15.39;49.78
55271;BME280;41132;47.162;9.470;2023-04-26T12:54:26;96334.19;;;15.40;51.26
55271;BME280;41132;47.162;9.470;2023-04-26T12:56:51;96336.09;;;15.53;49.10
55271;BME280;41132;47.162;9.470;2023-04-26T12:59:17;96319.09;;;15.62;51.49
55271;BME280;41132;47.162;9.470;2023-04-26T13:01:42;96334.13;;;15.61;50.25
55271;BME280;41132;47.162;9.470;2023-04-26T13:04:07;96336.22;;;15.66;51.26
55271;BME280;41132;47.162;9.470;2023-04-26T13:06:33;96303.06;;;15.42;49.92
55271;BME280;41132;47.162;9.470;2023-04-26T13:08:59;96336.72;;;15.55;51.67
55271;BME280;41132;47.162;9.470;2023-04-26T13:11:25;96348.69;;;15.51;50.24
55271;BME280;41132;47.162;9.470;2023-04-26T13:13:51;96339.84;;;15.15;49.50